createdAt,value
2023-03-06T00:00:33.642Z,5.61
2023-03-06T00:03:01.951Z,5.53
2023-03-06T00:05:30.314Z,5.48
2023-03-06T00:07:58.301Z,5.45
2023-03-06T00:10:29.782Z,5.44
2023-03-06T00:13:00.915Z,5.46
2023-03-06T00:15:29.806Z,5.46
2023-03-06T00:17:58.828Z,5.49
2023-03-06T00:20:27.779Z,5.51
2023-03-06T00:22:57.770Z,5.55
2023-03-06T00:25:26.267Z,5.60
2023-03-06T00:27:54.471Z,5.58
2023-03-06T00:30:25.606Z,5.53
2023-03-06T00:32:54.640Z,5.42
2023-03-06T00:35:22.828Z,5.25
2023-03-06T00:37:51.139Z,5.13
2023-03-06T00:40:22.003Z,5.08
2023-03-06T00:42:50.141Z,5.03
2023-03-06T00:45:18.234Z,4.99
2023-03-06T00:47:47.697Z,4.99
2023-03-06T00:50:15.756Z,5.00
2023-03-06T00:52:43.909Z,5.03
2023-03-06T00:55:12.464Z,5.06
2023-03-06T00:57:40.503Z,5.10
2023-03-06T01:00:09.623Z,5.07
2023-03-06T01:02:37.667Z,5.11
2023-03-06T01:05:08.600Z,5.06
2023-03-06T01:07:37.157Z,5.03
2023-03-06T01:10:06.028Z,4.96
2023-03-06T01:12:34.056Z,4.95
2023-03-06T01:15:02.156Z,4.87
2023-03-06T01:17:30.153Z,4.81
2023-03-06T01:19:59.345Z,4.79
2023-03-06T01:22:28.793Z,4.77
2023-03-06T01:24:56.816Z,4.73
2023-03-06T01:27:24.771Z,4.68
2023-03-06T01:29:52.834Z,4.64
2023-03-06T01:32:21.598Z,4.61
2023-03-06T01:34:49.669Z,4.59
2023-03-06T01:37:17.938Z,4.61
2023-03-06T01:39:47.349Z,4.65
2023-03-06T01:42:15.332Z,4.67
2023-03-06T01:45:01.838Z,4.66
2023-03-06T01:47:30.063Z,4.63
2023-03-06T01:50:00.766Z,4.60
2023-03-06T01:52:32.748Z,4.61
2023-03-06T01:55:05.143Z,4.61
2023-03-06T01:57:36.296Z,4.59
2023-03-06T02:00:08.424Z,4.64
2023-03-06T02:02:37.446Z,4.65
2023-03-06T02:05:07.031Z,4.64
2023-03-06T02:07:35.942Z,4.58
2023-03-06T02:10:06.143Z,4.60
2023-03-06T02:12:34.702Z,4.56
2023-03-06T02:15:02.967Z,4.52
2023-03-06T02:17:31.195Z,4.51
2023-03-06T02:20:08.677Z,4.51
2023-03-06T02:22:41.826Z,4.51
2023-03-06T02:25:21.472Z,4.45
2023-03-06T02:27:50.016Z,4.28
2023-03-06T02:30:19.731Z,4.17
2023-03-06T02:32:47.773Z,4.09
2023-03-06T02:35:20.156Z,4.07
2023-03-06T02:37:48.293Z,3.98
2023-03-06T02:40:18.680Z,3.83
2023-03-06T02:42:50.578Z,3.69
2023-03-06T02:45:23.202Z,3.57
2023-03-06T02:47:51.175Z,3.51
2023-03-06T02:50:19.237Z,3.42
2023-03-06T02:52:47.368Z,3.37
2023-03-06T02:55:15.525Z,3.33
2023-03-06T02:57:43.799Z,3.29
2023-03-06T03:00:14.490Z,3.31
2023-03-06T03:02:42.742Z,3.26
2023-03-06T03:05:11.104Z,3.23
2023-03-06T03:07:39.157Z,3.20
2023-03-06T03:10:08.233Z,3.16
2023-03-06T03:12:36.383Z,3.12
2023-03-06T03:15:04.677Z,3.11
2023-03-06T03:17:36.864Z,3.08
2023-03-06T03:20:05.913Z,3.10
2023-03-06T03:22:33.973Z,3.02
2023-03-06T03:25:01.944Z,3.05
2023-03-06T03:27:29.952Z,3.04
2023-03-06T03:29:58.642Z,3.02
2023-03-06T03:32:26.674Z,3.01
2023-03-06T03:34:57.819Z,2.97
2023-03-06T03:37:25.746Z,2.97
2023-03-06T03:39:53.715Z,2.94
2023-03-06T03:42:21.688Z,2.88
2023-03-06T03:44:49.713Z,2.85
2023-03-06T03:47:17.814Z,2.84
2023-03-06T03:49:46.027Z,2.86
2023-03-06T03:52:15.534Z,2.87
2023-03-06T03:54:43.510Z,2.87
2023-03-06T03:57:11.498Z,2.87
2023-03-06T03:59:39.418Z,2.86
2023-03-06T04:02:07.418Z,2.85
2023-03-06T04:04:35.642Z,2.91
2023-03-06T04:07:04.518Z,2.94
2023-03-06T04:09:34.044Z,3.03
2023-03-06T04:12:02.333Z,3.03
2023-03-06T04:14:30.304Z,2.99
2023-03-06T04:16:58.260Z,2.91
2023-03-06T04:19:26.289Z,2.84
2023-03-06T04:21:54.234Z,2.83
2023-03-06T04:24:22.191Z,2.86
2023-03-06T04:26:51.529Z,2.90
2023-03-06T04:29:19.482Z,2.99
2023-03-06T04:31:47.462Z,3.06
2023-03-06T04:34:15.651Z,3.08
2023-03-06T04:36:45.206Z,3.10
2023-03-06T04:39:13.956Z,3.09
2023-03-06T04:41:42.247Z,3.10
2023-03-06T04:44:11.778Z,3.12
2023-03-06T04:46:39.752Z,3.16
2023-03-06T04:49:08.638Z,3.17
2023-03-06T04:51:37.231Z,3.17
2023-03-06T04:54:05.746Z,3.16
2023-03-06T04:56:34.642Z,3.16
2023-03-06T04:59:04.104Z,3.13
2023-03-06T05:01:33.525Z,3.11
2023-03-06T05:04:01.562Z,3.09
2023-03-06T05:06:29.603Z,3.05
2023-03-06T05:08:57.597Z,3.04
2023-03-06T05:11:25.579Z,3.06
2023-03-06T05:13:53.607Z,3.06
2023-03-06T05:16:21.608Z,3.07
2023-03-06T05:18:50.970Z,3.02
2023-03-06T05:21:18.943Z,2.94
2023-03-06T05:23:47.605Z,2.84
2023-03-06T05:26:16.409Z,2.77
2023-03-06T05:28:44.761Z,2.71
2023-03-06T05:31:12.995Z,2.71
2023-03-06T05:33:40.955Z,2.77
2023-03-06T05:36:11.101Z,2.81
2023-03-06T05:38:39.090Z,2.85
2023-03-06T05:41:07.166Z,2.87
2023-03-06T05:43:35.205Z,2.91
2023-03-06T05:46:04.086Z,2.93
2023-03-06T05:48:32.451Z,2.94
2023-03-06T05:51:02.019Z,2.95
2023-03-06T05:53:32.012Z,2.92
2023-03-06T05:56:01.655Z,2.96
2023-03-06T05:58:30.216Z,2.96
2023-03-06T06:00:58.667Z,2.97
2023-03-06T06:03:26.764Z,2.92
2023-03-06T06:05:54.779Z,2.88
2023-03-06T06:08:22.998Z,2.83
2023-03-06T06:10:53.561Z,2.79
2023-03-06T06:13:21.619Z,2.76
2023-03-06T06:15:49.657Z,2.79
2023-03-06T06:18:17.775Z,2.84
2023-03-06T06:20:45.780Z,2.84
2023-03-06T06:23:13.905Z,2.78
2023-03-06T06:25:41.872Z,2.76
2023-03-06T06:28:12.500Z,2.76
2023-03-06T06:30:40.474Z,2.82
2023-03-06T06:33:08.454Z,2.82
2023-03-06T06:35:38.079Z,2.82
2023-03-06T06:38:06.135Z,2.83
2023-03-06T06:40:34.203Z,2.86
2023-03-06T06:43:02.176Z,2.89
2023-03-06T06:45:31.572Z,2.94
2023-03-06T06:47:59.667Z,3.03
2023-03-06T06:50:27.658Z,3.13
2023-03-06T06:52:55.734Z,3.28
2023-03-06T06:55:23.753Z,3.43
2023-03-06T06:57:51.710Z,3.57
2023-03-06T07:00:21.031Z,3.61
2023-03-06T07:02:51.349Z,3.68
2023-03-06T07:05:21.130Z,3.71
2023-03-06T07:07:51.377Z,3.77
2023-03-06T07:10:20.980Z,3.87
2023-03-06T07:12:49.216Z,3.95
2023-03-06T07:15:18.255Z,4.05
2023-03-06T07:17:48.848Z,4.16
2023-03-06T07:20:19.896Z,4.33
2023-03-06T07:22:51.523Z,4.52
2023-03-06T07:25:20.204Z,4.71
2023-03-06T07:27:53.413Z,4.85
2023-03-06T07:30:22.621Z,4.92
2023-03-06T07:32:53.975Z,5.01
2023-03-06T07:35:24.331Z,5.12
2023-03-06T07:37:52.469Z,5.25
2023-03-06T07:40:20.924Z,5.35
2023-03-06T07:42:49.588Z,5.39
2023-03-06T07:45:17.832Z,5.43
2023-03-06T07:47:47.016Z,5.48
2023-03-06T07:50:15.043Z,5.50
2023-03-06T07:52:44.523Z,5.52
2023-03-06T07:55:13.601Z,5.58
2023-03-06T07:57:41.871Z,5.76
2023-03-06T08:00:14.832Z,6.01
2023-03-06T08:02:44.198Z,7.49
2023-03-06T08:05:15.491Z,9.59
2023-03-06T08:07:46.318Z,11.71
2023-03-06T08:10:16.592Z,13.07
2023-03-06T08:12:44.906Z,13.41
2023-03-06T08:15:14.140Z,13.98
2023-03-06T08:17:42.283Z,15.30
2023-03-06T08:20:11.821Z,16.33
2023-03-06T08:22:39.885Z,16.99
2023-03-06T08:25:11.670Z,17.89
2023-03-06T08:27:39.700Z,18.31
2023-03-06T08:30:09.829Z,18.56
2023-03-06T08:32:38.738Z,19.28
2023-03-06T08:35:07.851Z,20.25
2023-03-06T08:37:35.920Z,20.40
2023-03-06T08:40:05.422Z,20.52
2023-03-06T08:42:34.867Z,19.67
2023-03-06T08:45:02.854Z,18.69
2023-03-06T08:47:30.815Z,18.56
2023-03-06T08:50:00.797Z,19.58
2023-03-06T08:52:28.923Z,20.78
2023-03-06T08:54:58.082Z,21.71
2023-03-06T08:57:26.138Z,22.06
2023-03-06T08:59:55.623Z,21.98
2023-03-06T09:02:23.644Z,21.79
2023-03-06T09:04:51.638Z,21.88
2023-03-06T09:07:19.596Z,22.45
2023-03-06T09:09:47.633Z,23.24
2023-03-06T09:12:15.634Z,24.10
2023-03-06T09:14:43.600Z,24.54
2023-03-06T09:17:13.049Z,24.77
2023-03-06T09:19:41.065Z,25.01
2023-03-06T09:22:09.082Z,25.42
2023-03-06T09:24:37.097Z,26.15
2023-03-06T09:27:05.286Z,26.67
2023-03-06T09:29:33.270Z,26.66
2023-03-06T09:32:01.368Z,26.05
2023-03-06T09:34:30.840Z,25.20
2023-03-06T09:36:58.873Z,25.14
2023-03-06T09:39:27.481Z,25.53
2023-03-06T09:41:56.862Z,26.32
2023-03-06T09:44:27.922Z,27.28
2023-03-06T09:47:16.398Z,27.91
2023-03-06T09:49:56.405Z,28.59
2023-03-06T09:52:37.527Z,29.40
2023-03-06T09:55:13.487Z,30.50
2023-03-06T09:57:54.813Z,31.86
2023-03-06T10:00:27.909Z,32.82
2023-03-06T10:03:06.963Z,33.94
2023-03-06T10:05:40.817Z,34.37
2023-03-06T10:08:22.152Z,34.27
2023-03-06T10:10:55.171Z,34.41
2023-03-06T10:13:29.438Z,34.76
2023-03-06T10:16:05.906Z,34.81
2023-03-06T10:18:38.431Z,34.97
2023-03-06T10:21:24.175Z,34.96
2023-03-06T10:23:55.606Z,34.44
2023-03-06T10:26:28.067Z,34.07
2023-03-06T10:29:32.337Z,33.27
2023-03-06T10:32:11.339Z,33.03
2023-03-06T10:34:41.401Z,34.05
2023-03-06T10:37:20.074Z,35.29
2023-03-06T10:39:49.741Z,35.47
2023-03-06T10:42:17.739Z,35.46
2023-03-06T10:44:45.706Z,34.73
2023-03-06T10:47:32.463Z,35.39
2023-03-06T10:50:03.062Z,36.33
2023-03-06T10:52:34.889Z,36.93
2023-03-06T10:55:26.600Z,36.54
2023-03-06T10:57:55.054Z,36.84
2023-03-06T11:00:29.289Z,36.88
2023-03-06T11:03:17.464Z,37.75
2023-03-06T11:05:59.353Z,39.00
2023-03-06T11:08:29.767Z,39.24
2023-03-06T11:11:00.404Z,39.63
2023-03-06T11:13:31.962Z,40.34
2023-03-06T11:16:04.058Z,41.04
2023-03-06T11:18:41.043Z,41.66
2023-03-06T11:21:30.321Z,42.07
2023-03-06T11:24:05.341Z,42.43
2023-03-06T11:26:42.595Z,42.82
2023-03-06T11:29:27.842Z,41.69
2023-03-06T11:31:59.724Z,40.33
2023-03-06T11:34:39.847Z,39.35
2023-03-06T11:37:12.794Z,38.33
2023-03-06T11:39:48.016Z,35.32
2023-03-06T11:42:21.389Z,31.16
2023-03-06T11:44:57.506Z,27.75
2023-03-06T11:47:30.697Z,25.08
2023-03-06T11:50:15.392Z,22.82
2023-03-06T11:52:49.881Z,21.30
2023-03-06T11:55:30.166Z,20.25
2023-03-06T11:58:26.775Z,19.51
2023-03-06T12:01:03.009Z,18.83
2023-03-06T12:03:57.539Z,18.28
2023-03-06T12:06:37.615Z,17.94
2023-03-06T12:09:24.367Z,17.74
2023-03-06T12:12:08.864Z,17.43
2023-03-06T12:15:05.431Z,17.15
2023-03-06T12:17:47.895Z,16.80
2023-03-06T12:20:28.487Z,16.49
2023-03-06T12:23:15.051Z,16.26
2023-03-06T12:25:45.194Z,16.02
2023-03-06T12:28:35.766Z,15.79
2023-03-06T12:31:24.617Z,15.48
2023-03-06T12:34:03.775Z,15.24
2023-03-06T12:36:40.728Z,15.07
2023-03-06T12:39:16.628Z,14.91
2023-03-06T12:41:55.591Z,14.84
2023-03-06T12:44:43.648Z,14.78
2023-03-06T12:47:13.918Z,14.73
2023-03-06T12:49:46.877Z,14.63
2023-03-06T12:52:29.539Z,14.61
2023-03-06T12:54:59.830Z,14.65
2023-03-06T12:57:29.059Z,14.61
2023-03-06T12:59:58.500Z,14.53
2023-03-06T13:03:07.914Z,14.45
2023-03-06T13:06:21.534Z,14.38
2023-03-06T13:09:13.391Z,14.36
2023-03-06T13:12:03.991Z,14.29
2023-03-06T13:14:54.788Z,14.29
2023-03-06T13:17:38.580Z,14.18
2023-03-06T13:20:30.866Z,14.11
2023-03-06T13:22:59.049Z,14.06
2023-03-06T13:25:50.575Z,14.03
2023-03-06T13:28:27.528Z,13.98
2023-03-06T13:30:56.218Z,13.95
2023-03-06T13:34:01.868Z,13.82
2023-03-06T13:36:32.147Z,13.70
2023-03-06T13:39:02.114Z,13.64
2023-03-06T13:42:00.399Z,13.59
2023-03-06T13:44:53.152Z,13.59
2023-03-06T13:48:09.758Z,13.61
2023-03-06T13:50:40.989Z,13.60
2023-03-06T13:53:37.508Z,13.58
2023-03-06T13:56:22.735Z,13.53
2023-03-06T13:59:21.251Z,13.50
2023-03-06T14:02:01.853Z,13.37
2023-03-06T14:04:38.095Z,13.34
2023-03-06T14:07:28.580Z,13.30
2023-03-06T14:10:03.948Z,13.29
2023-03-06T14:12:35.151Z,13.30
2023-03-06T14:15:13.454Z,13.28
2023-03-06T14:17:53.653Z,13.28
2023-03-06T14:20:22.761Z,13.34
2023-03-06T14:22:52.144Z,13.33
2023-03-06T14:25:27.518Z,13.33
2023-03-06T14:28:02.894Z,13.31
2023-03-06T14:30:33.811Z,13.27
2023-03-06T14:33:11.504Z,13.25
2023-03-06T14:35:39.620Z,13.21
2023-03-06T14:38:09.097Z,13.16
2023-03-06T14:40:42.053Z,13.17
2023-03-06T14:43:28.834Z,13.17
2023-03-06T14:45:58.592Z,13.18
2023-03-06T14:48:38.526Z,13.17
2023-03-06T14:51:08.063Z,13.21
2023-03-06T14:53:37.922Z,13.24
2023-03-06T14:56:07.769Z,13.25
2023-03-06T14:58:37.979Z,13.28
2023-03-06T15:01:09.569Z,13.27
2023-03-06T15:03:45.723Z,13.25
2023-03-06T15:06:20.207Z,13.23
2023-03-06T15:08:57.019Z,13.16
2023-03-06T15:11:25.074Z,13.17
2023-03-06T15:14:03.825Z,13.14
2023-03-06T15:16:32.228Z,13.13
2023-03-06T15:19:02.083Z,13.19
2023-03-06T15:21:35.987Z,13.20
2023-03-06T15:24:32.850Z,13.19
2023-03-06T15:27:04.168Z,13.19
2023-03-06T15:29:32.220Z,13.14
2023-03-06T15:32:28.879Z,13.10
2023-03-06T15:35:27.877Z,13.05
2023-03-06T15:37:56.348Z,13.05
2023-03-06T15:40:27.960Z,12.97
2023-03-06T15:42:56.447Z,12.95
2023-03-06T15:45:27.008Z,12.94
2023-03-06T15:47:56.494Z,12.96
2023-03-06T15:50:26.921Z,12.99
2023-03-06T15:52:55.048Z,12.99
2023-03-06T15:55:27.064Z,12.96
2023-03-06T15:57:58.062Z,12.96
2023-03-06T16:00:28.790Z,12.98
2023-03-06T16:02:57.235Z,12.95
2023-03-06T16:05:27.006Z,12.94
2023-03-06T16:07:56.007Z,12.93
2023-03-06T16:10:27.723Z,12.85
2023-03-06T16:12:57.736Z,12.83
2023-03-06T16:15:29.176Z,12.79
2023-03-06T16:17:57.579Z,12.82
2023-03-06T16:20:27.228Z,12.74
2023-03-06T16:22:55.416Z,12.69
2023-03-06T16:25:24.980Z,12.61
2023-03-06T16:27:59.069Z,12.57
2023-03-06T16:30:29.253Z,12.56
2023-03-06T16:32:57.387Z,12.48
2023-03-06T16:35:25.598Z,12.35
2023-03-06T16:37:53.813Z,12.23
2023-03-06T16:40:24.596Z,12.11
2023-03-06T16:42:55.278Z,11.98
2023-03-06T16:45:24.309Z,11.81
2023-03-06T16:47:52.934Z,11.65
2023-03-06T16:50:26.745Z,11.48
2023-03-06T16:52:56.327Z,11.36
2023-03-06T16:55:26.144Z,11.26
2023-03-06T16:57:55.673Z,11.14
2023-03-06T17:00:28.582Z,11.04
2023-03-06T17:02:57.544Z,10.93
2023-03-06T17:05:25.522Z,10.85
2023-03-06T17:07:53.696Z,10.75
2023-03-06T17:10:26.315Z,10.71
2023-03-06T17:12:56.512Z,10.68
2023-03-06T17:15:24.589Z,10.68
2023-03-06T17:17:53.386Z,10.63
2023-03-06T17:20:21.908Z,10.56
2023-03-06T17:22:49.935Z,10.47
2023-03-06T17:25:18.090Z,10.43
2023-03-06T17:27:46.158Z,10.39
2023-03-06T17:30:17.031Z,10.34
2023-03-06T17:32:45.066Z,10.30
2023-03-06T17:35:13.162Z,10.26
2023-03-06T17:37:41.251Z,10.22
2023-03-06T17:40:10.985Z,10.17
2023-03-06T17:42:39.002Z,10.12
2023-03-06T17:45:09.401Z,10.07
2023-03-06T17:47:39.102Z,10.04
2023-03-06T17:50:07.532Z,10.02
2023-03-06T17:52:35.641Z,9.97
2023-03-06T17:55:03.741Z,9.93
2023-03-06T17:57:31.781Z,9.85
2023-03-06T17:59:59.800Z,9.80
2023-03-06T18:02:27.920Z,9.76
2023-03-06T18:04:58.576Z,9.73
2023-03-06T18:07:26.739Z,9.72
2023-03-06T18:09:54.817Z,9.71
2023-03-06T18:12:22.867Z,9.73
2023-03-06T18:14:51.149Z,9.73
2023-03-06T18:17:19.262Z,9.66
2023-03-06T18:19:47.307Z,9.65
2023-03-06T18:22:16.693Z,9.63
2023-03-06T18:24:44.792Z,9.60
2023-03-06T18:27:12.841Z,9.58
2023-03-06T18:29:40.940Z,9.54
2023-03-06T18:32:10.805Z,9.52
2023-03-06T18:34:39.042Z,9.48
2023-03-06T18:37:07.189Z,9.42
2023-03-06T18:39:36.699Z,9.37
2023-03-06T18:42:04.843Z,9.32
2023-03-06T18:44:32.842Z,9.30
2023-03-06T18:47:00.951Z,9.28
2023-03-06T18:49:29.024Z,9.24
2023-03-06T18:51:57.104Z,9.19
2023-03-06T18:54:28.606Z,9.16
2023-03-06T18:56:58.138Z,9.17
2023-03-06T18:59:26.324Z,9.22
2023-03-06T19:01:57.713Z,9.25
2023-03-06T19:04:26.128Z,9.18
2023-03-06T19:06:54.660Z,9.16
2023-03-06T19:09:23.220Z,9.12
2023-03-06T19:11:52.569Z,9.07
2023-03-06T19:14:23.827Z,9.03
2023-03-06T19:16:51.969Z,8.99
2023-03-06T19:19:19.999Z,8.98
2023-03-06T19:21:48.005Z,8.92
2023-03-06T19:24:16.022Z,8.86
2023-03-06T19:26:44.151Z,8.85
2023-03-06T19:29:12.330Z,8.87
2023-03-06T19:31:42.738Z,8.89
2023-03-06T19:34:10.837Z,8.88
2023-03-06T19:36:40.923Z,8.86
2023-03-06T19:39:09.825Z,8.86
2023-03-06T19:41:37.853Z,8.82
2023-03-06T19:44:06.340Z,8.82
2023-03-06T19:46:36.225Z,8.81
2023-03-06T19:49:11.887Z,8.78
2023-03-06T19:51:39.938Z,8.79
2023-03-06T19:54:07.989Z,8.80
2023-03-06T19:56:36.059Z,8.74
2023-03-06T19:59:04.052Z,8.75
2023-03-06T20:01:34.225Z,8.75
2023-03-06T20:04:03.388Z,8.73
2023-03-06T20:06:36.699Z,8.69
2023-03-06T20:09:06.683Z,8.63
2023-03-06T20:11:34.756Z,8.62
2023-03-06T20:14:04.367Z,8.59
2023-03-06T20:16:33.315Z,8.55
2023-03-06T20:19:02.479Z,8.51
2023-03-06T20:21:33.681Z,8.48
2023-03-06T20:24:01.891Z,8.44
2023-03-06T20:26:31.208Z,8.28
2023-03-06T20:28:59.536Z,8.32
2023-03-06T20:31:29.759Z,8.24
2023-03-06T20:34:00.101Z,8.18
2023-03-06T20:36:30.530Z,8.18
2023-03-06T20:39:02.583Z,8.14
2023-03-06T20:41:32.946Z,8.11
2023-03-06T20:44:02.568Z,8.09
2023-03-06T20:46:31.917Z,8.04
2023-03-06T20:49:00.360Z,8.00
2023-03-06T20:51:31.808Z,7.97
2023-03-06T20:54:02.720Z,7.96
2023-03-06T20:56:33.138Z,7.96
2023-03-06T20:59:02.136Z,7.95
2023-03-06T21:01:32.389Z,7.91
2023-03-06T21:04:01.537Z,7.81
2023-03-06T21:06:30.175Z,7.73
2023-03-06T21:08:58.855Z,7.61
2023-03-06T21:11:28.818Z,7.54
2023-03-06T21:13:57.052Z,7.52
2023-03-06T21:16:26.792Z,7.52
2023-03-06T21:18:56.224Z,7.48
2023-03-06T21:21:26.658Z,7.44
2023-03-06T21:23:54.931Z,7.43
2023-03-06T21:26:25.016Z,7.41
2023-03-06T21:28:55.384Z,7.36
2023-03-06T21:31:23.635Z,7.34
2023-03-06T21:33:51.892Z,7.30
2023-03-06T21:36:22.675Z,7.31
2023-03-06T21:38:51.925Z,7.30
2023-03-06T21:41:24.171Z,7.28
2023-03-06T21:43:56.982Z,7.24
2023-03-06T21:46:25.454Z,7.24
2023-03-06T21:48:54.871Z,7.21
2023-03-06T21:51:24.593Z,7.20
2023-03-06T21:53:54.070Z,7.15
2023-03-06T21:56:25.278Z,7.16
2023-03-06T21:58:55.800Z,7.15
2023-03-06T22:01:28.753Z,7.10
2023-03-06T22:03:57.486Z,7.10
2023-03-06T22:06:27.162Z,7.09
2023-03-06T22:08:57.184Z,7.11
2023-03-06T22:11:26.551Z,7.10
2023-03-06T22:13:55.999Z,7.07
2023-03-06T22:16:24.005Z,7.01
2023-03-06T22:18:52.860Z,6.96
2023-03-06T22:21:23.037Z,6.94
2023-03-06T22:23:51.931Z,6.92
2023-03-06T22:26:20.684Z,6.86
2023-03-06T22:28:48.802Z,6.87
2023-03-06T22:31:20.141Z,6.87
2023-03-06T22:33:51.267Z,6.87
2023-03-06T22:36:20.203Z,6.86
2023-03-06T22:38:49.028Z,6.84
2023-03-06T22:41:20.116Z,6.85
2023-03-06T22:43:48.693Z,6.81
2023-03-06T22:46:19.507Z,6.80
2023-03-06T22:48:47.491Z,6.80
2023-03-06T22:51:17.121Z,6.80
2023-03-06T22:53:45.907Z,6.80
2023-03-06T22:56:15.900Z,6.81
2023-03-06T22:58:45.141Z,6.81
2023-03-06T23:01:14.947Z,6.82
2023-03-06T23:03:45.800Z,6.83
2023-03-06T23:06:16.199Z,6.82
2023-03-06T23:08:46.102Z,6.82
2023-03-06T23:11:16.059Z,6.81
2023-03-06T23:13:44.317Z,6.80
2023-03-06T23:16:12.385Z,6.77
2023-03-06T23:18:42.009Z,6.75
2023-03-06T23:21:13.576Z,6.71
2023-03-06T23:23:42.805Z,6.71
2023-03-06T23:26:15.082Z,6.68
2023-03-06T23:28:43.458Z,6.67
2023-03-06T23:31:13.061Z,6.67
2023-03-06T23:33:41.765Z,6.64
2023-03-06T23:36:13.107Z,6.61
2023-03-06T23:38:41.644Z,6.60
2023-03-06T23:41:12.727Z,6.60
2023-03-06T23:43:41.060Z,6.60
2023-03-06T23:46:09.990Z,6.57
2023-03-06T23:48:39.720Z,6.57
2023-03-06T23:51:08.559Z,6.58
2023-03-06T23:53:38.092Z,6.60
2023-03-06T23:56:07.299Z,6.61
2023-03-06T23:58:36.264Z,6.56
